Time;durP1;ratioP1;P1;durP2;ratioP2;P2;SDS_P1;SDS_P2;PMS_P1;PMS_P2;Temp;Humidity;BMP_temperature;BMP_pressure;BME280_temperature;BME280_humidity;BME280_pressure;Samples;Min_cycle;Max_cycle;Signal;HPM_P1;HPM_P2
2022/11/16 00:02:55;;;;;;;28.08;20.02;;;;;;;;;;10270511;28;20065;-59
2022/11/16 00:07:55;;;;;;;31.02;20.13;;;;;;;;;;10258146;28;20076;-60
2022/11/16 00:12:53;;;;;;;28.15;20.55;;;;;;;;;;10245089;28;20041;-59
2022/11/16 00:17:51;;;;;;;25.63;20.25;;;;;;;;;;10269002;28;20072;-59
2022/11/16 00:22:49;;;;;;;25.25;19.90;;;;;;;;;;10258447;28;20419;-61
2022/11/16 00:27:49;;;;;;;32.22;22.58;;;;;;;;;;10247234;28;20457;-59
2022/11/16 00:32:47;;;;;;;26.83;20.27;;;;;;;;;;10268717;28;20057;-59
2022/11/16 00:37:45;;;;;;;25.92;19.55;;;;;;;;;;10274180;28;20860;-60
2022/11/16 00:42:44;;;;;;;24.85;19.40;;;;;;;;;;10272034;28;20077;-60
2022/11/16 00:47:43;;;;;;;25.20;18.73;;;;;;;;;;10275731;28;20076;-59
2022/11/16 00:52:42;;;;;;;26.50;19.40;;;;;;;;;;10268758;28;20087;-59
2022/11/16 00:57:40;;;;;;;23.75;18.60;;;;;;;;;;10269461;28;20079;-59
2022/11/16 01:02:40;;;;;;;27.38;19.27;;;;;;;;;;10268593;28;20581;-60
2022/11/16 01:07:40;;;;;;;26.45;20.13;;;;;;;;;;10267690;28;20080;-60
2022/11/16 01:12:39;;;;;;;29.10;21.88;;;;;;;;;;10269577;28;20549;-60
2022/11/16 01:17:38;;;;;;;32.13;22.88;;;;;;;;;;10271197;28;20068;-59
2022/11/16 01:22:36;;;;;;;28.27;20.13;;;;;;;;;;10253349;28;20041;-61
2022/11/16 01:27:36;;;;;;;28.70;20.80;;;;;;;;;;10246164;28;20113;-61
2022/11/16 01:32:37;;;;;;;26.00;19.25;;;;;;;;;;10264520;28;20076;-60
2022/11/16 01:37:37;;;;;;;25.35;19.60;;;;;;;;;;10252789;28;20064;-60
2022/11/16 01:42:37;;;;;;;29.05;19.88;;;;;;;;;;10245665;28;20761;-60
2022/11/16 01:47:35;;;;;;;26.77;19.27;;;;;;;;;;10249721;28;20080;-60
2022/11/16 01:52:35;;;;;;;27.48;18.80;;;;;;;;;;10234394;28;20607;-61
2022/11/16 01:57:36;;;;;;;27.95;20.85;;;;;;;;;;10235029;28;20046;-60
2022/11/16 02:02:38;;;;;;;26.45;20.00;;;;;;;;;;10264834;28;20438;-60
2022/11/16 02:13:12;;;;;;;28.35;21.27;;;;;;;;;;10256214;28;20045;-60
2022/11/16 02:18:20;;;;;;;28.08;21.05;;;;;;;;;;10237999;28;20164;-61
2022/11/16 02:23:31;;;;;;;30.38;19.90;;;;;;;;;;10268231;28;20494;-59
2022/11/16 02:28:34;;;;;;;30.83;22.80;;;;;;;;;;10253619;28;20450;-59
2022/11/16 02:33:36;;;;;;;32.40;22.60;;;;;;;;;;10235302;28;20426;-60
2022/11/16 02:38:37;;;;;;;26.55;20.65;;;;;;;;;;10247987;28;20052;-59
2022/11/16 02:43:37;;;;;;;29.77;21.00;;;;;;;;;;10265739;28;20534;-60
2022/11/16 02:48:39;;;;;;;33.00;23.27;;;;;;;;;;10254933;28;20083;-60
2022/11/16 02:53:39;;;;;;;39.75;30.75;;;;;;;;;;10246055;28;20355;-59
2022/11/16 02:58:40;;;;;;;38.05;26.80;;;;;;;;;;10254387;28;20065;-57
2022/11/16 03:03:42;;;;;;;29.15;19.33;;;;;;;;;;10268707;28;20522;-56
2022/11/16 03:08:43;;;;;;;24.63;19.13;;;;;;;;;;10268834;28;20088;-60
2022/11/16 03:13:43;;;;;;;25.55;17.85;;;;;;;;;;10254398;28;20045;-60
2022/11/16 03:18:43;;;;;;;26.10;18.52;;;;;;;;;;10234693;28;20053;-59
2022/11/16 03:23:42;;;;;;;30.88;19.88;;;;;;;;;;10268878;28;20033;-59
2022/11/16 03:28:43;;;;;;;25.58;20.20;;;;;;;;;;10269757;28;20092;-60
2022/11/16 03:33:44;;;;;;;34.63;20.35;;;;;;;;;;10252208;28;20052;-60
2022/11/16 03:38:45;;;;;;;27.90;20.23;;;;;;;;;;10227248;28;20053;-60
2022/11/16 03:43:44;;;;;;;24.80;19.15;;;;;;;;;;10267338;28;20057;-60
2022/11/16 03:48:44;;;;;;;25.83;18.67;;;;;;;;;;10284478;28;20506;-59
2022/11/16 03:53:55;;;;;;;26.95;19.75;;;;;;;;;;10284242;28;20052;-59
2022/11/16 03:58:53;;;;;;;26.00;19.08;;;;;;;;;;10263359;28;20080;-59
2022/11/16 04:03:53;;;;;;;29.25;21.65;;;;;;;;;;10264983;28;20049;-59
2022/11/16 04:25:03;;;;;;;26.85;20.65;;;;;;;;;;10274880;28;20087;-59
2022/11/16 04:30:02;;;;;;;27.83;20.80;;;;;;;;;;10269330;28;20045;-60
2022/11/16 04:40:21;;;;;;;49.85;38.08;;;;;;;;;;10266260;28;20061;-59
2022/11/16 04:50:37;;;;;;;34.70;23.08;;;;;;;;;;10276035;28;20076;-60
2022/11/16 04:55:35;;;;;;;33.85;24.90;;;;;;;;;;10276219;28;20056;-59
2022/11/16 05:00:34;;;;;;;33.92;22.85;;;;;;;;;;10269219;28;20076;-59
2022/11/16 05:05:33;;;;;;;44.22;29.63;;;;;;;;;;10273615;28;20087;-59
2022/11/16 05:10:32;;;;;;;37.20;26.38;;;;;;;;;;10273834;28;20431;-58
2022/11/16 05:15:31;;;;;;;25.00;19.63;;;;;;;;;;10272738;28;20063;-59
2022/11/16 05:25:47;;;;;;;35.47;26.13;;;;;;;;;;10270358;28;20080;-59
2022/11/16 05:30:45;;;;;;;28.58;20.25;;;;;;;;;;10269757;28;20079;-60
2022/11/16 05:35:49;;;;;;;30.13;21.27;;;;;;;;;;10255327;28;20497;-58
2022/11/16 05:40:49;;;;;;;38.42;26.17;;;;;;;;;;10270056;28;20076;-57
2022/11/16 05:45:47;;;;;;;26.42;20.35;;;;;;;;;;10265007;28;20565;-54
2022/11/16 05:50:46;;;;;;;25.83;20.70;;;;;;;;;;10266148;28;20111;-60
2022/11/16 05:55:53;;;;;;;25.73;20.27;;;;;;;;;;10274109;28;20060;-58
2022/11/16 06:00:53;;;;;;;30.05;21.05;;;;;;;;;;10274091;28;20045;-58
2022/11/16 06:05:54;;;;;;;28.65;21.90;;;;;;;;;;10275278;28;20067;-58
2022/11/16 06:10:56;;;;;;;28.83;22.30;;;;;;;;;;10277438;28;20076;-60
2022/11/16 06:15:55;;;;;;;26.02;21.50;;;;;;;;;;10273697;28;20068;-59
2022/11/16 06:20:53;;;;;;;24.48;19.90;;;;;;;;;;10273660;28;20073;-58
2022/11/16 06:25:53;;;;;;;24.50;19.27;;;;;;;;;;10272543;28;20084;-59
2022/11/16 06:30:54;;;;;;;26.45;21.17;;;;;;;;;;10271930;28;20045;-58
2022/11/16 06:35:54;;;;;;;24.48;20.48;;;;;;;;;;10267671;28;20057;-60
2022/11/16 06:40:55;;;;;;;25.63;19.63;;;;;;;;;;10254784;28;20049;-59
2022/11/16 06:45:58;;;;;;;30.10;22.75;;;;;;;;;;10266163;28;20495;-58
2022/11/16 06:50:56;;;;;;;24.40;21.30;;;;;;;;;;10269220;28;20068;-59
2022/11/16 06:55:54;;;;;;;32.22;24.75;;;;;;;;;;10266252;28;20076;-57
2022/11/16 07:00:53;;;;;;;29.85;24.27;;;;;;;;;;10267876;28;20069;-58
2022/11/16 07:05:53;;;;;;;28.98;24.23;;;;;;;;;;10267655;28;20530;-59
2022/11/16 07:10:52;;;;;;;31.50;26.75;;;;;;;;;;10268264;28;20526;-58
2022/11/16 07:15:50;;;;;;;30.15;23.45;;;;;;;;;;10270540;28;20080;-58
2022/11/16 07:20:49;;;;;;;29.33;23.10;;;;;;;;;;10270615;28;20048;-57
2022/11/16 07:25:49;;;;;;;38.17;30.48;;;;;;;;;;10269843;28;20551;-57
2022/11/16 07:31:01;;;;;;;33.15;25.65;;;;;;;;;;10271036;28;20048;-59
2022/11/16 07:36:02;;;;;;;52.17;41.17;;;;;;;;;;10268293;28;20604;-60
2022/11/16 08:40:11;;;;;;;35.78;26.38;;;;;;;;;;10246439;28;20053;-57
2022/11/16 08:45:11;;;;;;;34.63;25.35;;;;;;;;;;10250332;28;20116;-58
2022/11/16 08:50:11;;;;;;;36.30;28.83;;;;;;;;;;10249837;28;20092;-57
2022/11/16 08:55:12;;;;;;;44.88;29.17;;;;;;;;;;10259137;28;20085;-56
2022/11/16 09:00:14;;;;;;;33.67;26.98;;;;;;;;;;10267789;28;20052;-56
2022/11/16 09:05:12;;;;;;;37.00;27.52;;;;;;;;;;10250229;28;20508;-59
2022/11/16 09:10:10;;;;;;;42.65;30.25;;;;;;;;;;10236645;28;20089;-57
2022/11/16 09:15:09;;;;;;;39.90;30.55;;;;;;;;;;10258856;28;20076;-60
2022/11/16 09:20:09;;;;;;;34.05;28.30;;;;;;;;;;10270412;28;20092;-59
2022/11/16 09:25:09;;;;;;;39.95;30.42;;;;;;;;;;10271039;28;20453;-60
2022/11/16 09:30:09;;;;;;;37.85;30.77;;;;;;;;;;10270208;28;20628;-59
2022/11/16 09:35:09;;;;;;;37.08;29.52;;;;;;;;;;10270563;28;20071;-59
2022/11/16 09:40:10;;;;;;;38.78;30.15;;;;;;;;;;10270322;28;20069;-60
2022/11/16 09:45:15;;;;;;;43.67;31.00;;;;;;;;;;10271340;28;20155;-59
2022/11/16 09:50:26;;;;;;;36.60;27.53;;;;;;;;;;10269622;28;20571;-59
2022/11/16 09:55:27;;;;;;;41.15;29.15;;;;;;;;;;10267648;28;20067;-59
2022/11/16 10:00:26;;;;;;;39.88;30.00;;;;;;;;;;10249566;28;20071;-60
2022/11/16 10:05:28;;;;;;;39.13;29.17;;;;;;;;;;10258528;28;20135;-59
2022/11/16 10:10:32;;;;;;;40.78;29.35;;;;;;;;;;10257742;28;20509;-60
2022/11/16 10:15:44;;;;;;;36.80;29.20;;;;;;;;;;10260602;28;20056;-60
2022/11/16 10:20:50;;;;;;;47.35;36.92;;;;;;;;;;10272378;28;20084;-60
2022/11/16 10:25:52;;;;;;;50.20;39.83;;;;;;;;;;10270268;28;20099;-60
2022/11/16 10:30:54;;;;;;;46.25;32.72;;;;;;;;;;10271012;28;20071;-60
2022/11/16 10:35:54;;;;;;;50.28;39.30;;;;;;;;;;10270105;28;20498;-59
2022/11/16 10:40:54;;;;;;;36.63;29.55;;;;;;;;;;10271088;28;20095;-59
2022/11/16 10:45:56;;;;;;;36.22;28.17;;;;;;;;;;10272218;28;20084;-60
2022/11/16 10:50:56;;;;;;;36.13;28.65;;;;;;;;;;10272859;28;20065;-60
2022/11/16 10:56:01;;;;;;;38.83;31.33;;;;;;;;;;10262068;28;20087;-59
2022/11/16 11:00:59;;;;;;;44.05;34.63;;;;;;;;;;10270687;28;20627;-59
2022/11/16 11:05:59;;;;;;;38.85;30.45;;;;;;;;;;10271292;28;20119;-60
2022/11/16 11:11:00;;;;;;;40.03;31.48;;;;;;;;;;10265790;28;20077;-59
2022/11/16 11:16:17;;;;;;;48.28;38.72;;;;;;;;;;10271274;28;20073;-61
2022/11/16 11:21:19;;;;;;;45.38;36.53;;;;;;;;;;10258147;28;20068;-60
2022/11/16 11:26:26;;;;;;;44.95;33.50;;;;;;;;;;10273787;28;20069;-58
2022/11/16 11:31:35;;;;;;;42.78;34.13;;;;;;;;;;10278574;28;20103;-60
2022/11/16 11:36:37;;;;;;;41.13;32.42;;;;;;;;;;10275499;28;20044;-62
2022/11/16 11:41:36;;;;;;;50.13;41.35;;;;;;;;;;10275366;28;20091;-59
2022/11/16 11:46:36;;;;;;;53.97;42.15;;;;;;;;;;10278123;28;20068;-60
2022/11/16 11:51:57;;;;;;;48.47;35.05;;;;;;;;;;10277270;28;20079;-61
2022/11/16 11:56:56;;;;;;;53.72;39.53;;;;;;;;;;10271172;28;20501;-61
2022/11/16 12:02:05;;;;;;;43.05;34.90;;;;;;;;;;10273736;28;20084;-61
2022/11/16 12:07:11;;;;;;;40.92;32.33;;;;;;;;;;10274984;28;20056;-60
2022/11/16 12:12:19;;;;;;;39.22;32.10;;;;;;;;;;10261669;28;20072;-60
2022/11/16 12:17:20;;;;;;;45.10;35.35;;;;;;;;;;10262809;28;20103;-60
2022/11/16 12:22:29;;;;;;;41.55;33.13;;;;;;;;;;10261932;28;20478;-61
2022/11/16 12:27:32;;;;;;;41.03;31.98;;;;;;;;;;10260912;28;20095;-60
2022/11/16 12:32:45;;;;;;;44.70;37.00;;;;;;;;;;10258035;28;20068;-60
2022/11/16 12:37:48;;;;;;;51.22;37.03;;;;;;;;;;10245850;28;20093;-60
2022/11/16 12:42:49;;;;;;;38.70;32.40;;;;;;;;;;10267758;28;20526;-60
2022/11/16 12:47:55;;;;;;;41.67;32.05;;;;;;;;;;10247693;28;20085;-60
2022/11/16 12:53:05;;;;;;;40.78;34.05;;;;;;;;;;10250871;28;20083;-60
2022/11/16 12:58:10;;;;;;;40.15;32.50;;;;;;;;;;10251738;28;20065;-59
2022/11/16 13:03:08;;;;;;;;;;;;;;;;;;10256335;28;20072;-60
2022/11/16 13:08:10;;;;;;;45.10;34.05;;;;;;;;;;10261838;28;20369;-60
2022/11/16 13:13:11;;;;;;;37.28;31.27;;;;;;;;;;10252355;28;20069;-60
2022/11/16 13:18:32;;;;;;;43.75;35.22;;;;;;;;;;10259972;28;20073;-60
2022/11/16 13:23:41;;;;;;;43.03;34.75;;;;;;;;;;10255355;28;20155;-60
2022/11/16 13:28:42;;;;;;;45.97;38.45;;;;;;;;;;10243259;28;20077;-61
2022/11/16 13:33:43;;;;;;;40.63;34.38;;;;;;;;;;10256876;28;20069;-59
2022/11/16 13:38:51;;;;;;;39.47;31.42;;;;;;;;;;10268247;28;20072;-59
2022/11/16 13:43:49;;;;;;;41.25;34.42;;;;;;;;;;10275058;28;20100;-60
2022/11/16 13:48:48;;;;;;;44.22;35.92;;;;;;;;;;10263692;28;20069;-60
2022/11/16 13:53:47;;;;;;;38.50;31.75;;;;;;;;;;10268313;28;20087;-58
2022/11/16 13:59:14;;;;;;;60.78;44.88;;;;;;;;;;10273047;28;20092;-59
2022/11/16 14:04:41;;;;;;;46.30;36.28;;;;;;;;;;10274459;28;20718;-61
2022/11/16 14:09:46;;;;;;;48.65;39.70;;;;;;;;;;10231292;28;20080;-58
2022/11/16 14:15:13;;;;;;;69.15;50.78;;;;;;;;;;10269840;28;20068;-59
2022/11/16 14:20:12;;;;;;;67.40;60.17;;;;;;;;;;10264998;28;20084;-59
2022/11/16 14:25:28;;;;;;;97.40;69.35;;;;;;;;;;10269686;28;20658;-59
2022/11/16 14:30:30;;;;;;;52.08;42.53;;;;;;;;;;10273229;28;20088;-59
2022/11/16 14:35:32;;;;;;;57.95;45.92;;;;;;;;;;10254608;28;20061;-59
2022/11/16 14:40:32;;;;;;;56.22;42.50;;;;;;;;;;10268725;28;20525;-59
2022/11/16 14:45:34;;;;;;;67.60;52.70;;;;;;;;;;10267228;28;20061;-60
2022/11/16 14:50:33;;;;;;;57.55;46.45;;;;;;;;;;10270082;28;20083;-59
2022/11/16 14:55:41;;;;;;;64.65;45.63;;;;;;;;;;10265405;28;20076;-59
2022/11/16 15:00:41;;;;;;;76.88;50.40;;;;;;;;;;10262643;28;20502;-59
2022/11/16 15:05:39;;;;;;;62.08;44.25;;;;;;;;;;10263473;28;20080;-60
2022/11/16 15:10:43;;;;;;;63.38;44.42;;;;;;;;;;10260492;28;20081;-60
2022/11/16 15:16:07;;;;;;;79.20;53.88;;;;;;;;;;10246009;28;20458;-60
2022/11/16 15:21:06;;;;;;;69.07;47.85;;;;;;;;;;10234941;28;20077;-61
2022/11/16 15:26:04;;;;;;;50.95;39.30;;;;;;;;;;10262053;28;20065;-61
2022/11/16 15:31:05;;;;;;;87.40;65.18;;;;;;;;;;10267895;28;20079;-59
2022/11/16 15:36:21;;;;;;;107.93;76.78;;;;;;;;;;10267885;28;20040;-60
2022/11/16 15:41:19;;;;;;;134.18;87.55;;;;;;;;;;10267029;28;20514;-60
2022/11/16 15:46:19;;;;;;;147.30;102.15;;;;;;;;;;10267416;28;20339;-60
2022/11/16 15:51:19;;;;;;;128.63;101.78;;;;;;;;;;10267294;28;20064;-60
2022/11/16 15:56:18;;;;;;;123.30;95.28;;;;;;;;;;10267113;28;20537;-60
2022/11/16 16:01:17;;;;;;;104.75;79.65;;;;;;;;;;10267831;28;20048;-59
2022/11/16 16:06:37;;;;;;;142.10;108.22;;;;;;;;;;10266898;28;20080;-61
2022/11/16 16:11:35;;;;;;;80.03;61.50;;;;;;;;;;10268866;28;20092;-60
2022/11/16 16:16:35;;;;;;;41.10;35.40;;;;;;;;;;10274300;28;20077;-63
2022/11/16 16:21:42;;;;;;;77.82;63.30;;;;;;;;;;10261675;28;20450;-59
2022/11/16 16:26:41;;;;;;;218.38;154.57;;;;;;;;;;10255272;28;20064;-59
2022/11/16 16:31:39;;;;;;;147.35;99.25;;;;;;;;;;10261733;28;20064;-60
2022/11/16 16:36:37;;;;;;;48.22;37.45;;;;;;;;;;10273748;28;20441;-60
2022/11/16 16:41:37;;;;;;;40.75;32.60;;;;;;;;;;10272942;28;20122;-60
2022/11/16 16:46:35;;;;;;;41.80;34.10;;;;;;;;;;10272445;28;20069;-59
2022/11/16 16:51:34;;;;;;;44.10;34.78;;;;;;;;;;10272793;28;20087;-59
2022/11/16 16:56:32;;;;;;;46.97;39.08;;;;;;;;;;10273222;28;20065;-59
2022/11/16 17:01:32;;;;;;;43.05;36.97;;;;;;;;;;10257749;28;20557;-60
2022/11/16 17:06:30;;;;;;;178.98;141.93;;;;;;;;;;10251320;28;20447;-59
2022/11/16 17:11:29;;;;;;;140.15;103.55;;;;;;;;;;10258772;28;20099;-59
2022/11/16 17:16:27;;;;;;;122.70;86.75;;;;;;;;;;10271471;28;20525;-59
2022/11/16 17:21:27;;;;;;;41.15;33.17;;;;;;;;;;10271474;28;20075;-60
2022/11/16 17:26:28;;;;;;;44.28;36.50;;;;;;;;;;10257075;28;20084;-60
2022/11/16 17:31:27;;;;;;;43.85;33.08;;;;;;;;;;10250360;28;20108;-60
2022/11/16 17:36:26;;;;;;;40.58;33.08;;;;;;;;;;10257856;28;20085;-59
2022/11/16 17:41:25;;;;;;;51.95;42.80;;;;;;;;;;10256779;28;20530;-59
2022/11/16 17:46:24;;;;;;;42.03;36.75;;;;;;;;;;10249481;28;20464;-60
2022/11/16 17:51:23;;;;;;;40.67;34.42;;;;;;;;;;10241298;28;20454;-60
2022/11/16 17:56:24;;;;;;;38.17;30.55;;;;;;;;;;10263973;28;20072;-60
2022/11/16 18:01:23;;;;;;;38.15;31.10;;;;;;;;;;10268462;28;20076;-60
2022/11/16 18:06:22;;;;;;;34.13;29.15;;;;;;;;;;10266286;28;20072;-60
2022/11/16 18:11:21;;;;;;;34.08;28.90;;;;;;;;;;10271864;28;20084;-59
2022/11/16 18:16:21;;;;;;;31.85;28.17;;;;;;;;;;10268764;28;20085;-59
2022/11/16 18:21:20;;;;;;;30.20;25.67;;;;;;;;;;10267596;28;20080;-59
2022/11/16 18:26:19;;;;;;;35.67;31.52;;;;;;;;;;10267739;28;20065;-59
2022/11/16 18:31:18;;;;;;;33.08;27.88;;;;;;;;;;10267851;28;20079;-59
2022/11/16 18:36:19;;;;;;;27.50;23.67;;;;;;;;;;10269843;28;20069;-59
2022/11/16 18:41:19;;;;;;;27.80;24.80;;;;;;;;;;10273223;28;20049;-60
2022/11/16 18:46:17;;;;;;;27.67;23.45;;;;;;;;;;10269442;28;20064;-60
2022/11/16 18:51:16;;;;;;;23.67;21.17;;;;;;;;;;10268306;28;20502;-60
2022/11/16 18:56:16;;;;;;;23.67;21.38;;;;;;;;;;10269829;28;20079;-61
2022/11/16 19:01:15;;;;;;;26.40;22.73;;;;;;;;;;10254015;28;20061;-61
2022/11/16 19:06:16;;;;;;;27.92;23.05;;;;;;;;;;10271143;28;20072;-60
2022/11/16 19:11:17;;;;;;;30.30;27.17;;;;;;;;;;10272204;28;20077;-60
2022/11/16 19:16:15;;;;;;;21.35;18.58;;;;;;;;;;10272331;28;20064;-59
2022/11/16 19:21:17;;;;;;;18.40;16.40;;;;;;;;;;10270121;28;20045;-60
2022/11/16 19:26:17;;;;;;;19.67;17.50;;;;;;;;;;10269085;28;20515;-61
2022/11/16 19:31:16;;;;;;;19.75;17.67;;;;;;;;;;10271156;28;20461;-61
2022/11/16 19:36:16;;;;;;;19.38;17.38;;;;;;;;;;10268953;28;20045;-59
2022/11/16 19:41:14;;;;;;;25.73;19.95;;;;;;;;;;10263129;28;20568;-60
2022/11/16 19:46:15;;;;;;;55.05;33.20;;;;;;;;;;10260069;28;20064;-59
2022/11/16 19:51:15;;;;;;;75.07;59.75;;;;;;;;;;10271812;28;20076;-59
2022/11/16 19:56:16;;;;;;;101.90;77.60;;;;;;;;;;10259185;28;20064;-60
2022/11/16 20:01:17;;;;;;;99.40;76.20;;;;;;;;;;10270263;28;20084;-60
2022/11/16 20:06:16;;;;;;;99.47;73.18;;;;;;;;;;10276689;28;20093;-60
2022/11/16 20:11:15;;;;;;;108.93;84.95;;;;;;;;;;10272046;28;20077;-61
2022/11/16 20:16:14;;;;;;;175.00;145.27;;;;;;;;;;10265592;28;20083;-60
2022/11/16 20:21:17;;;;;;;116.32;88.32;;;;;;;;;;10276852;28;20090;-59
2022/11/16 20:26:15;;;;;;;107.65;85.18;;;;;;;;;;10274320;28;20651;-61
2022/11/16 20:31:15;;;;;;;115.53;86.57;;;;;;;;;;10273801;28;20080;-60
2022/11/16 20:36:15;;;;;;;121.93;93.07;;;;;;;;;;10275092;28;20064;-60
2022/11/16 20:41:14;;;;;;;120.55;90.22;;;;;;;;;;10275027;28;20529;-60
2022/11/16 20:46:13;;;;;;;100.65;79.63;;;;;;;;;;10273726;28;20433;-60
2022/11/16 20:51:12;;;;;;;120.55;85.80;;;;;;;;;;10269617;28;20069;-59
2022/11/16 20:56:12;;;;;;;106.03;79.90;;;;;;;;;;10263178;28;20466;-61
2022/11/16 21:01:14;;;;;;;150.13;112.78;;;;;;;;;;10265701;28;20045;-59
2022/11/16 21:06:13;;;;;;;118.85;87.47;;;;;;;;;;10277829;28;20068;-60
2022/11/16 21:11:13;;;;;;;83.88;64.95;;;;;;;;;;10276110;28;20075;-60
2022/11/16 21:16:13;;;;;;;98.60;75.15;;;;;;;;;;10267514;28;20075;-59
2022/11/16 21:21:13;;;;;;;124.18;90.25;;;;;;;;;;10271471;28;20140;-60
2022/11/16 21:26:14;;;;;;;136.98;103.22;;;;;;;;;;10276211;28;20091;-60
2022/11/16 21:31:13;;;;;;;88.30;63.55;;;;;;;;;;10276660;28;20077;-60
2022/11/16 21:36:13;;;;;;;30.50;22.33;;;;;;;;;;10276234;28;20068;-60
2022/11/16 21:41:11;;;;;;;36.38;24.73;;;;;;;;;;10267618;28;20089;-60
2022/11/16 21:46:12;;;;;;;19.52;16.95;;;;;;;;;;10259968;28;20065;-60
2022/11/16 21:51:11;;;;;;;16.55;14.77;;;;;;;;;;10266487;28;20087;-60
2022/11/16 21:56:11;;;;;;;15.23;13.57;;;;;;;;;;10271469;28;20079;-60
2022/11/16 22:01:11;;;;;;;16.80;15.07;;;;;;;;;;10273214;28;20049;-60
2022/11/16 22:11:28;;;;;;;57.80;31.08;;;;;;;;;;10267009;28;20306;-59
2022/11/16 22:16:28;;;;;;;17.60;14.57;;;;;;;;;;10270741;28;20696;-60
2022/11/16 22:21:26;;;;;;;15.45;13.63;;;;;;;;;;10271705;28;20068;-60
2022/11/16 22:26:24;;;;;;;19.77;13.57;;;;;;;;;;10270028;28;20040;-59
2022/11/16 22:31:23;;;;;;;18.42;13.73;;;;;;;;;;10273782;28;20087;-59
2022/11/16 22:36:23;;;;;;;15.45;13.80;;;;;;;;;;10270191;28;20072;-60
2022/11/16 22:41:21;;;;;;;17.20;15.00;;;;;;;;;;10273848;28;20472;-61
2022/11/16 22:46:19;;;;;;;16.75;14.90;;;;;;;;;;10269719;28;20072;-61
2022/11/16 22:51:18;;;;;;;16.63;14.68;;;;;;;;;;10261918;28;20076;-60
2022/11/16 22:56:18;;;;;;;22.35;17.25;;;;;;;;;;10271820;28;20037;-60
2022/11/16 23:01:17;;;;;;;38.03;24.38;;;;;;;;;;10273117;28;20069;-60
2022/11/16 23:06:16;;;;;;;17.63;13.27;;;;;;;;;;10273844;28;20088;-60
2022/11/16 23:16:32;;;;;;;16.35;13.38;;;;;;;;;;10273765;28;20088;-60
2022/11/16 23:32:04;;;;;;;14.88;12.10;;;;;;;;;;10278293;28;20512;-59
2022/11/16 23:37:03;;;;;;;13.30;11.50;;;;;;;;;;10280037;28;20083;-60
2022/11/16 23:47:19;;;;;;;13.00;11.18;;;;;;;;;;10280875;28;20048;-60
2022/11/16 23:52:17;;;;;;;15.00;11.43;;;;;;;;;;10270644;28;20084;-60
2022/11/16 23:57:15;;;;;;;14.32;12.02;;;;;;;;;;10280945;28;20458;-60
